createdAt,value
2023-06-16T00:05:02.392Z,12.95
2023-06-16T00:10:08.726Z,14.75
2023-06-16T00:15:14.278Z,13.65
2023-06-16T00:20:21.458Z,14.35
2023-06-16T00:25:26.015Z,13.40
2023-06-16T00:30:32.104Z,14.38
2023-06-16T00:35:37.882Z,14.13
2023-06-16T00:40:42.574Z,13.95
2023-06-16T00:45:49.924Z,13.50
2023-06-16T00:50:56.170Z,14.50
2023-06-16T00:56:01.084Z,14.43
2023-06-16T01:01:06.691Z,12.48
2023-06-16T01:06:26.908Z,13.88
2023-06-16T01:11:41.947Z,12.98
2023-06-16T01:16:49.049Z,13.65
2023-06-16T01:22:07.570Z,14.85
2023-06-16T01:27:18.436Z,14.15
2023-06-16T01:32:23.338Z,13.50
2023-06-16T01:37:29.430Z,12.88
2023-06-16T01:42:36.394Z,13.55
2023-06-16T01:47:41.358Z,14.25
2023-06-16T01:52:45.839Z,15.52
2023-06-16T01:57:54.571Z,14.93
2023-06-16T02:03:07.660Z,17.83
2023-06-16T02:08:17.701Z,18.23
2023-06-16T02:13:23.378Z,17.33
2023-06-16T02:18:29.409Z,17.13
2023-06-16T02:23:34.264Z,18.23
2023-06-16T02:28:39.830Z,16.58
2023-06-16T02:33:45.423Z,16.48
2023-06-16T02:43:55.628Z,16.60
2023-06-16T02:49:00.640Z,16.42
2023-06-16T02:54:05.814Z,17.33
2023-06-16T02:59:12.334Z,15.68
2023-06-16T03:04:18.403Z,17.15
2023-06-16T03:09:49.326Z,17.00
2023-06-16T03:14:56.488Z,16.27
2023-06-16T03:20:01.155Z,15.95
2023-06-16T03:25:22.273Z,16.35
2023-06-16T03:30:28.852Z,15.65
2023-06-16T03:35:39.185Z,15.63
2023-06-16T03:40:48.699Z,14.25
2023-06-16T03:45:54.732Z,15.27
2023-06-16T03:51:00.561Z,15.35
2023-06-16T03:56:05.117Z,14.07
2023-06-16T04:01:12.100Z,16.25
2023-06-16T04:06:16.847Z,15.10
2023-06-16T04:16:28.310Z,15.10
2023-06-16T04:21:35.404Z,16.58
2023-06-16T04:26:42.869Z,17.92
2023-06-16T04:31:52.192Z,17.17
2023-06-16T04:36:58.457Z,14.90
2023-06-16T04:42:10.524Z,15.75
2023-06-16T04:47:18.726Z,12.52
2023-06-16T04:52:24.277Z,12.52
2023-06-16T04:57:28.872Z,10.77
2023-06-16T05:02:36.289Z,10.00
2023-06-16T05:07:40.647Z,8.25
2023-06-16T05:12:45.153Z,8.23
2023-06-16T05:17:50.923Z,8.80
2023-06-16T05:22:55.352Z,7.70
2023-06-16T05:27:59.700Z,8.32
2023-06-16T05:33:05.858Z,7.57
2023-06-16T05:38:11.088Z,7.63
2023-06-16T05:43:15.362Z,7.07
2023-06-16T05:48:21.275Z,6.78
2023-06-16T05:53:25.848Z,6.68
2023-06-16T06:03:36.908Z,7.03
2023-06-16T06:08:43.607Z,7.35
2023-06-16T06:13:50.135Z,5.38
2023-06-16T06:18:56.056Z,6.20
2023-06-16T06:24:03.018Z,5.20
2023-06-16T06:34:13.995Z,4.88
2023-06-16T06:39:18.578Z,5.05
2023-06-16T06:44:23.155Z,5.90
2023-06-16T06:49:29.879Z,5.47
2023-06-16T06:54:34.354Z,6.32
2023-06-16T06:59:40.123Z,6.35
2023-06-16T07:04:46.193Z,5.63
2023-06-16T07:09:50.667Z,5.38
2023-06-16T07:14:55.195Z,5.95
2023-06-16T07:20:00.788Z,5.35
2023-06-16T07:25:05.747Z,5.28
2023-06-16T07:30:11.360Z,5.18
2023-06-16T07:35:17.033Z,5.03
2023-06-16T07:40:21.754Z,4.65
2023-06-16T07:45:26.568Z,4.78
2023-06-16T07:50:32.744Z,5.13
2023-06-16T07:55:37.167Z,4.55
2023-06-16T08:00:41.542Z,5.05
2023-06-16T08:05:48.081Z,4.75
2023-06-16T08:10:52.330Z,4.55
2023-06-16T08:15:57.608Z,4.55
2023-06-16T08:21:07.374Z,4.80
2023-06-16T08:26:13.251Z,4.25
2023-06-16T08:31:19.097Z,4.05
2023-06-16T08:36:26.101Z,3.88
2023-06-16T08:41:32.577Z,3.83
2023-06-16T08:46:37.816Z,4.15
2023-06-16T08:51:49.129Z,4.82
2023-06-16T08:56:54.151Z,3.58
2023-06-16T09:02:00.444Z,4.05
2023-06-16T09:07:07.168Z,4.15
2023-06-16T09:12:12.899Z,4.25
2023-06-16T09:17:19.519Z,4.05
2023-06-16T09:22:28.193Z,4.20
2023-06-16T09:27:45.686Z,5.05
2023-06-16T09:32:53.209Z,4.72
2023-06-16T09:38:02.022Z,4.88
2023-06-16T09:43:11.808Z,3.50
2023-06-16T09:48:16.277Z,4.30
2023-06-16T09:53:24.845Z,4.18
2023-06-16T09:58:41.280Z,4.30
2023-06-16T10:03:52.245Z,3.83
2023-06-16T10:08:59.134Z,4.25
2023-06-16T10:14:06.623Z,4.38
2023-06-16T10:19:12.372Z,3.90
2023-06-16T10:24:19.165Z,4.45
2023-06-16T10:29:27.282Z,4.00
2023-06-16T10:34:32.016Z,4.30
2023-06-16T10:39:45.831Z,4.03
2023-06-16T10:44:50.086Z,4.15
2023-06-16T10:49:59.005Z,4.30
2023-06-16T11:00:31.626Z,4.00
2023-06-16T11:05:40.016Z,3.60
2023-06-16T11:10:51.761Z,3.80
2023-06-16T11:15:58.617Z,4.35
2023-06-16T11:21:06.316Z,3.95
2023-06-16T11:26:13.295Z,3.70
2023-06-16T11:31:22.358Z,3.90
2023-06-16T11:36:27.396Z,4.43
2023-06-16T11:41:32.481Z,4.05
2023-06-16T11:46:38.334Z,3.50
2023-06-16T11:51:42.634Z,3.75
2023-06-16T11:56:51.435Z,3.88
2023-06-16T12:01:58.943Z,3.80
2023-06-16T12:07:05.869Z,3.70
2023-06-16T12:12:11.742Z,3.53
2023-06-16T12:17:17.623Z,3.72
2023-06-16T12:22:23.608Z,3.45
2023-06-16T12:27:28.285Z,3.78
2023-06-16T12:32:35.731Z,3.85
2023-06-16T12:37:43.060Z,3.60
2023-06-16T12:42:47.785Z,3.70
2023-06-16T12:47:53.378Z,3.42
2023-06-16T12:52:58.124Z,3.72
2023-06-16T12:58:02.324Z,3.58
2023-06-16T13:08:12.084Z,3.50
2023-06-16T13:13:16.686Z,3.58
2023-06-16T13:18:22.330Z,3.50
2023-06-16T13:23:27.290Z,3.15
2023-06-16T13:28:31.517Z,3.42
2023-06-16T13:33:38.638Z,3.78
2023-06-16T13:38:44.891Z,3.60
2023-06-16T13:43:52.943Z,3.85
2023-06-16T13:48:58.898Z,3.15
2023-06-16T13:54:05.279Z,4.20
2023-06-16T13:59:09.689Z,3.45
2023-06-16T14:04:15.414Z,3.97
2023-06-16T14:09:19.733Z,4.18
2023-06-16T14:14:24.015Z,3.85
2023-06-16T14:19:34.570Z,3.53
2023-06-16T14:24:39.893Z,3.78
2023-06-16T14:29:44.311Z,4.15
2023-06-16T14:34:50.111Z,3.90
2023-06-16T14:39:54.402Z,3.90
2023-06-16T14:44:58.713Z,3.22
2023-06-16T14:50:04.455Z,3.80
2023-06-16T14:55:10.214Z,3.90
2023-06-16T15:00:16.403Z,4.28
2023-06-16T15:05:22.973Z,3.95
2023-06-16T15:10:27.283Z,4.45
2023-06-16T15:15:32.063Z,3.78
2023-06-16T15:20:37.925Z,4.60
2023-06-16T15:25:42.322Z,3.75
2023-06-16T15:30:47.149Z,4.18
2023-06-16T15:35:52.771Z,4.00
2023-06-16T15:40:57.206Z,3.83
2023-06-16T15:46:02.405Z,4.18
2023-06-16T15:51:08.743Z,3.70
2023-06-16T15:56:13.025Z,3.60
2023-06-16T16:01:17.938Z,4.20
2023-06-16T16:06:23.597Z,4.13
2023-06-16T16:11:28.250Z,4.03
2023-06-16T16:16:32.989Z,4.03
2023-06-16T16:21:40.220Z,4.10
2023-06-16T16:26:44.603Z,4.60
2023-06-16T16:31:49.329Z,4.55
2023-06-16T16:36:55.338Z,4.22
2023-06-16T16:42:00.380Z,4.22
2023-06-16T16:47:05.304Z,4.20
2023-06-16T16:52:11.536Z,4.60
2023-06-16T16:57:16.570Z,4.55
2023-06-16T17:02:20.929Z,4.82
2023-06-16T17:12:30.841Z,4.88
2023-06-16T17:22:41.257Z,5.38
2023-06-16T17:27:58.259Z,5.10
2023-06-16T17:33:04.371Z,4.68
2023-06-16T17:38:09.989Z,5.63
2023-06-16T17:43:14.546Z,4.82
2023-06-16T17:53:24.414Z,6.70
2023-06-16T17:58:28.998Z,5.82
2023-06-16T18:03:34.141Z,5.88
2023-06-16T18:08:40.262Z,5.68
2023-06-16T18:13:44.714Z,6.03
2023-06-16T18:18:49.351Z,6.45
2023-06-16T18:23:55.786Z,6.70
2023-06-16T18:29:01.359Z,7.63
2023-06-16T18:34:06.308Z,7.97
2023-06-16T18:39:16.091Z,5.70
2023-06-16T18:44:20.837Z,4.25
2023-06-16T18:49:25.714Z,4.47
2023-06-16T18:54:32.222Z,3.67
2023-06-16T18:59:36.949Z,3.47
2023-06-16T19:04:42.184Z,3.95
2023-06-16T19:09:48.335Z,3.95
2023-06-16T19:14:52.903Z,4.35
2023-06-16T19:19:57.718Z,4.40
2023-06-16T19:25:03.577Z,4.20
2023-06-16T19:30:09.137Z,4.47
2023-06-16T19:35:14.023Z,4.45
2023-06-16T19:40:20.237Z,4.60
2023-06-16T19:45:25.029Z,4.20
2023-06-16T19:50:29.259Z,5.25
2023-06-16T19:55:45.246Z,5.18
2023-06-16T20:00:53.818Z,5.30
2023-06-16T20:05:58.306Z,5.05
2023-06-16T20:11:03.904Z,7.07
2023-06-16T20:16:08.817Z,5.47
2023-06-16T20:21:14.171Z,5.93
2023-06-16T20:26:19.802Z,5.68
2023-06-16T20:31:24.778Z,7.65
2023-06-16T20:36:30.393Z,6.90
2023-06-16T20:41:36.350Z,7.57
2023-06-16T20:46:40.922Z,7.00
2023-06-16T20:51:45.931Z,6.18
2023-06-16T21:01:58.869Z,6.50
2023-06-16T21:07:04.552Z,6.30
2023-06-16T21:12:11.912Z,6.53
2023-06-16T21:17:16.632Z,6.68
2023-06-16T21:22:21.408Z,7.03
2023-06-16T21:27:31.691Z,7.53
2023-06-16T21:32:35.899Z,6.53
2023-06-16T21:37:41.634Z,6.38
2023-06-16T21:42:47.305Z,7.63
2023-06-16T21:47:51.956Z,7.00
2023-06-16T21:52:56.606Z,6.82
2023-06-16T21:58:02.336Z,7.63
2023-06-16T22:03:06.748Z,7.05
2023-06-16T22:08:11.433Z,7.28
2023-06-16T22:13:18.103Z,7.60
2023-06-16T22:18:24.539Z,6.75
2023-06-16T22:23:29.235Z,7.60
2023-06-16T22:28:35.758Z,7.40
2023-06-16T22:33:40.173Z,7.93
2023-06-16T22:38:44.562Z,8.05
2023-06-16T22:43:50.406Z,7.95
2023-06-16T22:48:54.908Z,8.30
2023-06-16T22:53:59.569Z,8.45
2023-06-16T23:09:13.997Z,8.13
2023-06-16T23:19:25.194Z,9.10
2023-06-16T23:24:31.001Z,8.50
2023-06-16T23:29:36.920Z,9.38
2023-06-16T23:34:41.149Z,8.95
2023-06-16T23:39:46.169Z,9.68
2023-06-16T23:44:54.772Z,8.90
2023-06-16T23:49:59.205Z,10.07
2023-06-16T23:55:03.884Z,9.05
